createdAt,value
2018-12-18T00:01:41.661Z,57.85
2018-12-18T00:04:09.955Z,59.27
2018-12-18T00:06:38.142Z,67.03
2018-12-18T00:09:07.215Z,65.35
2018-12-18T00:11:35.381Z,64.35
2018-12-18T00:14:03.610Z,64.82
2018-12-18T00:16:31.723Z,69.17
2018-12-18T00:19:00.016Z,68.20
2018-12-18T00:21:28.128Z,70.35
2018-12-18T00:23:56.254Z,62.35
2018-12-18T00:26:24.420Z,68.22
2018-12-18T00:28:52.690Z,63.95
2018-12-18T00:31:20.873Z,59.88
2018-12-18T00:33:49.176Z,60.73
2018-12-18T00:36:17.283Z,77.10
2018-12-18T00:38:45.456Z,71.67
2018-12-18T00:41:13.675Z,71.55
2018-12-18T00:43:41.812Z,75.55
2018-12-18T00:46:09.989Z,73.97
2018-12-18T00:48:38.112Z,73.25
2018-12-18T00:51:06.226Z,71.50
2018-12-18T00:53:34.390Z,66.72
2018-12-18T00:56:02.698Z,64.10
2018-12-18T00:58:30.887Z,62.00
2018-12-18T01:00:59.022Z,62.25
2018-12-18T01:03:27.156Z,60.00
2018-12-18T01:05:55.297Z,58.52
2018-12-18T01:08:23.584Z,66.50
2018-12-18T01:10:51.836Z,63.20
2018-12-18T01:13:19.968Z,56.88
2018-12-18T01:15:48.147Z,58.17
2018-12-18T01:18:16.360Z,60.90
2018-12-18T01:20:44.478Z,62.60
2018-12-18T01:23:12.611Z,61.07
2018-12-18T01:25:40.715Z,60.17
2018-12-18T01:28:08.868Z,58.85
2018-12-18T01:30:37.019Z,65.92
2018-12-18T01:33:05.135Z,61.23
2018-12-18T01:35:33.344Z,66.17
2018-12-18T01:38:01.476Z,65.55
2018-12-18T01:40:29.733Z,65.37
2018-12-18T01:42:58.015Z,64.45
2018-12-18T01:45:26.285Z,70.42
2018-12-18T01:47:54.387Z,65.95
2018-12-18T01:50:22.522Z,68.20
2018-12-18T01:52:50.631Z,66.65
2018-12-18T01:55:18.748Z,65.43
2018-12-18T01:57:46.937Z,69.37
2018-12-18T02:00:15.231Z,70.08
2018-12-18T02:02:43.438Z,73.93
2018-12-18T02:05:11.627Z,70.42
2018-12-18T02:07:39.771Z,73.45
2018-12-18T02:10:08.030Z,76.07
2018-12-18T02:12:36.223Z,75.17
2018-12-18T02:15:05.311Z,78.17
2018-12-18T02:17:33.495Z,69.67
2018-12-18T02:20:01.713Z,72.67
2018-12-18T02:22:29.896Z,77.05
2018-12-18T02:24:58.127Z,70.25
2018-12-18T02:27:26.236Z,69.35
2018-12-18T02:29:54.431Z,75.28
2018-12-18T02:32:22.551Z,72.58
2018-12-18T02:34:50.744Z,71.65
2018-12-18T02:37:18.923Z,69.65
2018-12-18T02:39:47.140Z,67.97
2018-12-18T02:42:15.345Z,71.15
2018-12-18T02:44:43.541Z,70.17
2018-12-18T02:47:11.829Z,71.85
2018-12-18T02:49:40.023Z,77.20
2018-12-18T02:52:08.253Z,78.10
2018-12-18T02:54:36.491Z,74.85
2018-12-18T02:57:04.712Z,79.45
2018-12-18T02:59:33.412Z,78.78
2018-12-18T03:02:01.780Z,77.80
2018-12-18T03:04:29.904Z,89.37
2018-12-18T03:06:58.075Z,85.35
2018-12-18T03:09:26.278Z,80.90
2018-12-18T03:11:54.483Z,80.40
2018-12-18T03:14:22.716Z,77.72
2018-12-18T03:16:51.308Z,83.42
2018-12-18T03:19:19.477Z,74.95
2018-12-18T03:21:47.673Z,78.47
2018-12-18T03:24:15.830Z,79.58
2018-12-18T03:26:43.964Z,78.12
2018-12-18T03:29:12.471Z,80.65
2018-12-18T03:31:44.275Z,79.45
2018-12-18T03:34:12.485Z,74.40
2018-12-18T03:36:40.620Z,71.97
2018-12-18T03:39:08.760Z,76.33
2018-12-18T03:41:37.112Z,79.62
2018-12-18T03:44:05.311Z,74.60
2018-12-18T03:46:33.535Z,90.37
2018-12-18T03:49:01.670Z,92.95
2018-12-18T03:51:29.824Z,89.92
2018-12-18T03:53:57.958Z,99.80
2018-12-18T03:56:26.187Z,100.20
2018-12-18T03:58:54.433Z,97.55
2018-12-18T04:01:22.555Z,80.17
2018-12-18T04:03:50.683Z,84.87
2018-12-18T04:06:18.836Z,81.00
2018-12-18T04:08:47.007Z,75.28
2018-12-18T04:11:15.223Z,82.50
2018-12-18T04:13:43.360Z,76.42
2018-12-18T04:16:11.580Z,84.22
2018-12-18T04:18:39.811Z,83.63
2018-12-18T04:21:08.017Z,76.97
2018-12-18T04:23:36.211Z,80.38
2018-12-18T04:26:04.499Z,91.50
2018-12-18T04:28:32.772Z,86.15
2018-12-18T04:31:01.007Z,90.40
2018-12-18T04:33:29.225Z,83.42
2018-12-18T04:35:57.522Z,85.53
2018-12-18T04:38:25.660Z,78.80
2018-12-18T04:40:53.870Z,86.10
2018-12-18T04:43:22.088Z,84.45
2018-12-18T04:45:50.214Z,81.10
2018-12-18T04:48:18.396Z,88.62
2018-12-18T04:50:46.661Z,88.33
2018-12-18T04:53:14.853Z,98.35
2018-12-18T04:55:43.177Z,95.85
2018-12-18T04:58:11.317Z,77.15
2018-12-18T05:00:39.462Z,70.32
2018-12-18T05:03:07.677Z,77.65
2018-12-18T05:05:35.991Z,79.17
2018-12-18T05:08:04.120Z,79.20
2018-12-18T05:10:32.483Z,79.77
2018-12-18T05:13:00.747Z,77.37
2018-12-18T05:15:28.867Z,73.87
2018-12-18T05:17:57.016Z,77.58
2018-12-18T05:20:25.300Z,106.03
2018-12-18T05:22:53.436Z,104.35
2018-12-18T05:25:21.720Z,85.25
2018-12-18T05:27:49.874Z,75.47
2018-12-18T05:30:18.288Z,71.65
2018-12-18T05:32:46.564Z,67.32
2018-12-18T05:35:14.854Z,58.48
2018-12-18T05:37:43.256Z,55.83
2018-12-18T05:40:11.498Z,56.98
2018-12-18T05:42:39.637Z,51.90
2018-12-18T05:45:07.763Z,49.60
2018-12-18T05:47:36.001Z,53.65
2018-12-18T05:50:04.532Z,57.05
2018-12-18T05:52:32.826Z,56.50
2018-12-18T05:55:00.969Z,55.73
2018-12-18T05:57:29.104Z,53.68
2018-12-18T05:59:57.252Z,48.98
2018-12-18T06:02:25.379Z,53.75
2018-12-18T06:04:53.493Z,57.95
2018-12-18T06:07:21.771Z,56.48
2018-12-18T06:09:49.999Z,57.93
2018-12-18T06:12:18.226Z,57.43
2018-12-18T06:14:46.511Z,55.10
2018-12-18T06:17:14.727Z,51.00
2018-12-18T06:19:42.848Z,55.73
2018-12-18T06:22:11.069Z,65.28
2018-12-18T06:24:39.289Z,52.17
2018-12-18T06:27:07.487Z,51.73
2018-12-18T06:29:35.699Z,57.55
2018-12-18T06:32:03.917Z,58.45
2018-12-18T06:34:32.203Z,61.08
2018-12-18T06:37:00.341Z,59.70
2018-12-18T06:39:28.579Z,55.65
2018-12-18T06:41:56.720Z,54.30
2018-12-18T06:44:24.896Z,60.28
2018-12-18T06:46:53.113Z,59.25
2018-12-18T06:49:21.469Z,58.40
2018-12-18T06:51:49.604Z,59.13
2018-12-18T06:54:17.735Z,55.48
2018-12-18T06:56:45.867Z,57.75
2018-12-18T06:59:14.027Z,57.20
2018-12-18T07:01:42.315Z,64.53
2018-12-18T07:04:10.524Z,53.92
2018-12-18T07:06:38.836Z,51.92
2018-12-18T07:09:08.627Z,54.08
2018-12-18T07:11:36.848Z,47.17
2018-12-18T07:14:05.127Z,51.23
2018-12-18T07:16:33.668Z,55.00
2018-12-18T07:19:02.012Z,61.05
2018-12-18T07:21:30.186Z,62.65
2018-12-18T07:23:58.430Z,67.65
2018-12-18T07:26:26.568Z,61.95
2018-12-18T07:28:54.723Z,59.13
2018-12-18T07:31:22.985Z,65.80
2018-12-18T07:33:51.187Z,66.30
2018-12-18T07:36:19.425Z,63.87
2018-12-18T07:38:47.762Z,73.45
2018-12-18T07:41:15.884Z,82.33
2018-12-18T07:43:44.177Z,78.30
2018-12-18T07:46:12.286Z,88.22
2018-12-18T07:48:40.476Z,79.03
2018-12-18T07:51:08.662Z,81.15
2018-12-18T07:53:36.804Z,82.50
2018-12-18T07:56:05.125Z,81.28
2018-12-18T07:58:33.420Z,84.80
2018-12-18T08:01:01.711Z,85.72
2018-12-18T08:03:30.013Z,85.12
2018-12-18T08:05:58.163Z,80.70
2018-12-18T08:08:26.307Z,75.05
2018-12-18T08:10:54.552Z,81.70
2018-12-18T08:13:22.798Z,79.35
2018-12-18T08:15:50.920Z,76.15
2018-12-18T08:18:19.055Z,70.22
2018-12-18T08:20:47.456Z,64.30
2018-12-18T08:23:15.596Z,68.10
2018-12-18T08:25:43.796Z,66.57
2018-12-18T08:28:12.022Z,69.15
2018-12-18T08:30:40.146Z,65.50
2018-12-18T08:33:08.339Z,68.70
2018-12-18T08:35:36.736Z,72.15
2018-12-18T08:38:05.032Z,71.85
2018-12-18T08:40:33.196Z,77.92
2018-12-18T08:43:01.344Z,72.03
2018-12-18T08:45:30.338Z,66.27
2018-12-18T08:47:58.797Z,66.57
2018-12-18T08:50:27.005Z,67.67
2018-12-18T08:52:55.336Z,68.33
2018-12-18T08:55:23.620Z,68.50
2018-12-18T08:57:51.851Z,64.37
2018-12-18T09:00:19.976Z,66.25
2018-12-18T09:02:48.183Z,58.68
2018-12-18T09:05:16.320Z,61.92
2018-12-18T09:07:44.536Z,57.87
2018-12-18T09:10:12.760Z,53.80
2018-12-18T09:12:40.995Z,52.50
2018-12-18T09:15:14.784Z,50.23
2018-12-18T09:17:46.215Z,50.40
2018-12-18T09:20:14.873Z,47.50
2018-12-18T09:22:43.323Z,45.65
2018-12-18T09:25:11.768Z,41.33
2018-12-18T09:27:39.896Z,39.38
2018-12-18T09:30:10.386Z,40.23
2018-12-18T09:32:38.668Z,38.33
2018-12-18T09:35:07.828Z,40.00
2018-12-18T09:37:36.028Z,41.28
2018-12-18T09:40:06.097Z,42.33
2018-12-18T09:42:39.665Z,43.70
2018-12-18T09:45:08.276Z,47.70
2018-12-18T09:47:36.584Z,44.75
2018-12-18T09:50:05.208Z,50.77
2018-12-18T09:52:33.462Z,50.23
2018-12-18T09:55:01.601Z,57.05
2018-12-18T09:57:35.218Z,54.35
2018-12-18T10:00:03.976Z,54.58
2018-12-18T10:02:32.173Z,53.13
2018-12-18T10:05:00.308Z,50.00
2018-12-18T10:07:28.532Z,50.17
2018-12-18T10:09:56.760Z,51.60
2018-12-18T10:12:30.433Z,53.73
2018-12-18T10:14:58.679Z,54.83
2018-12-18T10:17:26.870Z,58.23
2018-12-18T10:19:55.147Z,58.78
2018-12-18T10:22:23.280Z,60.38
2018-12-18T10:24:51.624Z,57.03
2018-12-18T10:27:19.754Z,56.42
2018-12-18T10:29:47.955Z,52.65
2018-12-18T10:32:16.231Z,53.73
2018-12-18T10:34:44.401Z,55.97
2018-12-18T10:37:12.588Z,52.55
2018-12-18T10:39:40.865Z,48.08
2018-12-18T10:42:09.565Z,42.45
2018-12-18T10:44:37.811Z,38.85
2018-12-18T10:47:06.105Z,34.92
2018-12-18T10:49:34.269Z,36.83
2018-12-18T10:52:02.543Z,34.97
2018-12-18T10:54:30.717Z,33.78
2018-12-18T10:56:58.952Z,32.13
2018-12-18T10:59:27.197Z,29.87
2018-12-18T11:01:57.119Z,29.92
2018-12-18T11:04:25.371Z,29.20
2018-12-18T11:06:53.676Z,25.90
2018-12-18T11:09:21.947Z,25.48
2018-12-18T11:11:50.165Z,26.82
2018-12-18T11:14:18.453Z,24.37
2018-12-18T11:16:46.744Z,25.85
2018-12-18T11:19:15.008Z,22.70
2018-12-18T11:21:43.225Z,22.65
2018-12-18T11:24:11.437Z,23.67
2018-12-18T11:26:39.567Z,25.50
2018-12-18T11:29:07.833Z,31.05
2018-12-18T11:31:36.162Z,32.63
2018-12-18T11:34:04.411Z,29.80
2018-12-18T11:36:32.627Z,26.75
2018-12-18T11:39:00.855Z,25.52
2018-12-18T11:41:29.040Z,29.60
2018-12-18T11:43:57.188Z,28.67
2018-12-18T11:46:25.390Z,29.75
2018-12-18T11:48:53.607Z,32.63
2018-12-18T11:51:21.913Z,30.50
2018-12-18T11:53:50.132Z,33.23
2018-12-18T11:56:18.472Z,32.95
2018-12-18T11:58:46.633Z,31.93
2018-12-18T12:01:14.815Z,31.87
2018-12-18T12:03:42.955Z,29.05
2018-12-18T12:06:11.260Z,33.63
2018-12-18T12:08:39.506Z,32.42
2018-12-18T12:11:07.648Z,31.05
2018-12-18T12:13:36.178Z,31.75
2018-12-18T12:16:04.355Z,32.93
2018-12-18T12:18:32.704Z,31.25
2018-12-18T12:21:01.084Z,31.02
2018-12-18T12:23:29.440Z,34.00
2018-12-18T12:26:00.071Z,31.62
2018-12-18T12:28:28.420Z,34.60
2018-12-18T12:30:56.648Z,33.93
2018-12-18T12:33:24.794Z,33.40
2018-12-18T12:35:53.064Z,32.83
2018-12-18T12:38:21.404Z,33.00
2018-12-18T12:40:49.672Z,31.15
2018-12-18T12:43:17.867Z,28.52
2018-12-18T12:45:46.083Z,29.50
2018-12-18T12:48:14.203Z,26.57
2018-12-18T12:50:42.506Z,30.12
2018-12-18T12:53:10.759Z,26.55
2018-12-18T12:55:38.887Z,22.90
2018-12-18T12:58:07.036Z,13.88
2018-12-18T13:00:35.325Z,14.30
2018-12-18T13:03:03.612Z,14.50
2018-12-18T13:05:31.771Z,12.47
2018-12-18T13:08:00.096Z,12.88
2018-12-18T13:10:28.500Z,12.50
2018-12-18T13:12:56.763Z,12.25
2018-12-18T13:15:25.031Z,12.20
2018-12-18T13:17:53.393Z,12.60
2018-12-18T13:20:21.625Z,12.03
2018-12-18T13:22:50.064Z,10.10
2018-12-18T13:25:18.239Z,10.20
2018-12-18T13:27:46.464Z,12.40
2018-12-18T13:30:14.674Z,11.50
2018-12-18T13:32:42.871Z,11.15
2018-12-18T13:35:11.157Z,10.88
2018-12-18T13:37:40.415Z,9.73
2018-12-18T13:40:08.740Z,9.37
2018-12-18T13:42:36.875Z,10.13
2018-12-18T13:45:05.304Z,9.68
2018-12-18T13:47:33.537Z,10.35
2018-12-18T13:50:01.731Z,11.30
2018-12-18T13:52:29.968Z,11.08
2018-12-18T13:54:58.124Z,9.80
2018-12-18T13:57:26.408Z,13.33
2018-12-18T13:59:54.600Z,11.53
2018-12-18T14:02:22.828Z,12.65
2018-12-18T14:04:50.988Z,10.65
2018-12-18T14:07:19.204Z,12.70
2018-12-18T14:09:47.607Z,10.60
2018-12-18T14:12:15.843Z,9.98
2018-12-18T14:14:44.055Z,11.73
2018-12-18T14:17:12.290Z,9.83
2018-12-18T14:19:40.532Z,10.10
2018-12-18T14:22:08.777Z,10.23
2018-12-18T14:24:36.904Z,9.73
2018-12-18T14:27:05.183Z,9.53
2018-12-18T14:29:33.408Z,9.60
2018-12-18T14:32:02.539Z,11.75
2018-12-18T14:34:30.912Z,10.55
2018-12-18T14:36:59.104Z,12.50
2018-12-18T14:39:27.361Z,11.30
2018-12-18T14:41:55.660Z,10.93
2018-12-18T14:44:23.851Z,9.83
2018-12-18T14:46:51.992Z,9.48
2018-12-18T14:49:20.271Z,9.50
2018-12-18T14:51:48.500Z,9.25
2018-12-18T14:54:16.850Z,9.98
2018-12-18T14:56:44.977Z,8.20
2018-12-18T14:59:13.198Z,10.10
2018-12-18T15:01:41.568Z,9.25
2018-12-18T15:04:09.724Z,10.20
2018-12-18T15:06:37.915Z,8.73
2018-12-18T15:09:07.060Z,9.60
2018-12-18T15:11:35.355Z,9.83
2018-12-18T15:14:03.754Z,9.35
2018-12-18T15:16:32.064Z,9.37
2018-12-18T15:19:00.440Z,10.55
2018-12-18T15:21:28.824Z,10.05
2018-12-18T15:23:56.941Z,10.23
2018-12-18T15:26:25.122Z,10.40
2018-12-18T15:28:53.357Z,8.53
2018-12-18T15:31:21.516Z,12.27
2018-12-18T15:33:49.712Z,12.40
2018-12-18T15:36:18.326Z,11.60
2018-12-18T15:38:46.599Z,11.45
2018-12-18T15:41:14.841Z,10.38
2018-12-18T15:43:42.982Z,10.50
2018-12-18T15:46:11.272Z,8.13
2018-12-18T15:48:39.468Z,9.73
2018-12-18T15:51:07.633Z,9.33
2018-12-18T15:53:35.815Z,9.08
2018-12-18T15:56:04.095Z,10.10
2018-12-18T15:58:32.237Z,10.60
2018-12-18T16:01:00.435Z,9.83
2018-12-18T16:03:28.536Z,9.83
2018-12-18T16:05:56.692Z,11.38
2018-12-18T16:08:24.873Z,11.00
2018-12-18T16:10:53.087Z,11.70
2018-12-18T16:13:21.286Z,12.23
2018-12-18T16:15:49.452Z,14.55
2018-12-18T16:18:17.653Z,17.12
2018-12-18T16:20:45.799Z,18.60
2018-12-18T16:23:14.416Z,18.52
2018-12-18T16:25:42.576Z,14.67
2018-12-18T16:28:10.698Z,15.15
2018-12-18T16:30:38.847Z,13.85
2018-12-18T16:33:07.047Z,12.28
2018-12-18T16:35:35.219Z,14.33
2018-12-18T16:38:03.522Z,12.55
2018-12-18T16:40:31.833Z,12.10
2018-12-18T16:43:00.075Z,11.22
2018-12-18T16:45:28.356Z,10.32
2018-12-18T16:47:56.742Z,13.15
2018-12-18T16:50:26.639Z,11.10
2018-12-18T16:52:55.072Z,12.15
2018-12-18T16:55:23.354Z,12.10
2018-12-18T16:57:52.361Z,12.45
2018-12-18T17:00:20.560Z,10.85
2018-12-18T17:02:48.946Z,13.95
2018-12-18T17:05:17.511Z,11.55
2018-12-18T17:07:45.791Z,12.27
2018-12-18T17:10:13.980Z,13.30
2018-12-18T17:12:46.383Z,20.57
2018-12-18T17:15:14.771Z,17.82
2018-12-18T17:17:43.148Z,18.82
2018-12-18T17:20:11.277Z,20.70
2018-12-18T17:22:39.643Z,13.68
2018-12-18T17:25:07.991Z,16.43
2018-12-18T17:27:36.228Z,18.92
2018-12-18T17:30:04.947Z,20.43
2018-12-18T17:32:33.152Z,20.90
2018-12-18T17:35:01.422Z,19.60
2018-12-18T17:37:36.044Z,20.45
2018-12-18T17:39:59.812Z,21.87
2018-12-18T17:42:28.453Z,25.52
2018-12-18T17:44:56.568Z,25.93
2018-12-18T17:47:24.712Z,22.93
2018-12-18T17:49:52.892Z,23.42
2018-12-18T17:52:20.987Z,23.10
2018-12-18T17:54:49.133Z,26.33
2018-12-18T17:57:17.304Z,26.57
2018-12-18T17:59:45.416Z,25.20
2018-12-18T18:02:13.696Z,26.53
2018-12-18T18:04:42.024Z,25.55
2018-12-18T18:07:10.288Z,26.40
2018-12-18T18:09:38.542Z,23.10
2018-12-18T18:12:06.872Z,25.40
2018-12-18T18:14:36.192Z,24.98
2018-12-18T18:17:04.711Z,26.70
2018-12-18T18:19:32.912Z,27.22
2018-12-18T18:22:01.100Z,29.05
2018-12-18T18:24:29.292Z,26.23
2018-12-18T18:26:57.472Z,26.37
2018-12-18T18:29:25.780Z,20.45
2018-12-18T18:31:54.176Z,20.62
2018-12-18T18:34:22.428Z,20.05
2018-12-18T18:36:50.828Z,20.30
2018-12-18T18:39:19.174Z,20.57
2018-12-18T18:41:47.299Z,19.30
2018-12-18T18:44:15.501Z,19.32
2018-12-18T18:46:43.649Z,20.10
2018-12-18T18:49:11.846Z,19.40
2018-12-18T18:51:40.264Z,19.55
2018-12-18T18:54:08.503Z,20.33
2018-12-18T18:56:36.746Z,16.85
2018-12-18T18:59:04.970Z,17.55
2018-12-18T19:01:33.687Z,15.47
2018-12-18T19:04:02.095Z,11.97
2018-12-18T19:06:30.338Z,16.60
2018-12-18T19:08:58.582Z,16.95
2018-12-18T19:11:27.723Z,17.80
2018-12-18T19:13:55.937Z,21.00
2018-12-18T19:16:24.232Z,18.45
2018-12-18T19:18:52.436Z,16.42
2018-12-18T19:21:21.176Z,17.93
2018-12-18T19:23:49.281Z,19.50
2018-12-18T19:26:17.464Z,17.35
2018-12-18T19:28:50.210Z,17.85
2018-12-18T19:31:15.734Z,23.05
2018-12-18T19:33:43.904Z,20.00
2018-12-18T19:36:12.067Z,20.02
2018-12-18T19:38:40.213Z,15.13
2018-12-18T19:41:08.339Z,17.83
2018-12-18T19:43:36.591Z,19.27
2018-12-18T19:46:04.796Z,18.02
2018-12-18T19:48:33.124Z,20.60
2018-12-18T19:51:01.448Z,18.15
2018-12-18T19:53:29.695Z,19.55
2018-12-18T19:55:57.870Z,17.23
2018-12-18T19:58:26.100Z,20.12
2018-12-18T20:00:54.378Z,19.20
2018-12-18T20:03:22.561Z,20.33
2018-12-18T20:05:50.774Z,17.05
2018-12-18T20:08:18.931Z,18.25
2018-12-18T20:10:47.080Z,17.57
2018-12-18T20:13:15.326Z,18.12
2018-12-18T20:15:43.554Z,22.02
2018-12-18T20:18:11.788Z,19.87
2018-12-18T20:20:40.117Z,21.85
2018-12-18T20:23:08.277Z,20.35
2018-12-18T20:25:36.470Z,17.00
2018-12-18T20:28:04.725Z,19.37
2018-12-18T20:30:32.883Z,19.57
2018-12-18T20:33:01.057Z,19.20
2018-12-18T20:35:29.371Z,21.23
2018-12-18T20:37:57.567Z,19.30
2018-12-18T20:40:25.843Z,20.97
2018-12-18T20:42:54.202Z,18.85
2018-12-18T20:45:22.427Z,20.90
2018-12-18T20:47:50.633Z,20.00
2018-12-18T20:50:18.959Z,20.52
2018-12-18T20:52:47.303Z,21.48
2018-12-18T20:55:15.631Z,22.58
2018-12-18T20:57:43.994Z,22.60
2018-12-18T21:00:13.256Z,20.20
2018-12-18T21:02:41.560Z,21.40
2018-12-18T21:05:10.388Z,23.57
2018-12-18T21:07:38.740Z,21.00
2018-12-18T21:10:08.293Z,22.80
2018-12-18T21:12:36.828Z,18.98
2018-12-18T21:15:06.020Z,21.97
2018-12-18T21:17:34.353Z,22.70
2018-12-18T21:20:03.112Z,24.65
2018-12-18T21:22:31.403Z,22.58
2018-12-18T21:24:59.635Z,22.50
2018-12-18T21:27:28.144Z,22.45
2018-12-18T21:29:56.481Z,25.55
2018-12-18T21:32:24.772Z,32.63
2018-12-18T21:34:54.103Z,28.00
2018-12-18T21:37:22.382Z,24.82
2018-12-18T21:39:50.747Z,23.85
2018-12-18T21:42:18.995Z,23.75
2018-12-18T21:44:47.510Z,24.95
2018-12-18T21:47:15.781Z,23.60
2018-12-18T21:49:44.238Z,30.65
2018-12-18T21:52:12.462Z,29.52
2018-12-18T21:54:40.838Z,30.35
2018-12-18T21:57:09.083Z,25.75
2018-12-18T21:59:37.429Z,28.57
2018-12-18T22:02:05.704Z,28.57
2018-12-18T22:04:33.928Z,28.12
2018-12-18T22:07:02.184Z,28.47
2018-12-18T22:09:30.435Z,28.60
2018-12-18T22:11:58.756Z,27.50
2018-12-18T22:14:27.166Z,25.45
2018-12-18T22:16:55.408Z,27.58
2018-12-18T22:19:23.703Z,27.60
2018-12-18T22:21:52.241Z,26.60
2018-12-18T22:24:20.519Z,25.75
2018-12-18T22:26:48.672Z,27.45
2018-12-18T22:29:16.986Z,26.65
2018-12-18T22:31:45.215Z,23.30
2018-12-18T22:34:13.444Z,24.92
2018-12-18T22:36:41.748Z,24.30
2018-12-18T22:39:10.048Z,23.80
2018-12-18T22:41:38.279Z,28.63
2018-12-18T22:44:06.420Z,29.57
2018-12-18T22:46:34.641Z,32.48
2018-12-18T22:49:02.784Z,31.70
2018-12-18T22:51:30.939Z,33.63
2018-12-18T22:53:59.091Z,36.08
2018-12-18T22:56:27.242Z,45.40
2018-12-18T22:58:55.383Z,42.10
2018-12-18T23:01:29.016Z,42.90
2018-12-18T23:03:57.239Z,44.63
2018-12-18T23:06:25.480Z,42.23
2018-12-18T23:08:53.630Z,50.88
2018-12-18T23:11:21.848Z,68.42
2018-12-18T23:13:50.017Z,53.45
2018-12-18T23:16:18.281Z,60.30
2018-12-18T23:18:46.606Z,48.05
2018-12-18T23:21:14.925Z,50.75
2018-12-18T23:23:43.076Z,49.70
2018-12-18T23:26:11.212Z,57.55
2018-12-18T23:28:39.359Z,48.92
2018-12-18T23:31:07.483Z,64.70
2018-12-18T23:33:35.799Z,84.50
2018-12-18T23:36:04.028Z,54.45
2018-12-18T23:38:32.164Z,50.00
2018-12-18T23:41:00.419Z,57.88
2018-12-18T23:43:28.737Z,59.75
2018-12-18T23:45:56.957Z,58.23
2018-12-18T23:48:25.470Z,82.08
2018-12-18T23:50:53.669Z,66.65
2018-12-18T23:53:21.926Z,57.20
2018-12-18T23:55:50.061Z,52.73
2018-12-18T23:58:18.295Z,52.45
